createdAt,value
2023-05-22T00:00:23.969Z,96674.47
2023-05-22T00:02:55.883Z,96674.75
2023-05-22T00:05:27.697Z,96671.91
2023-05-22T00:07:59.677Z,96674.44
2023-05-22T00:10:31.409Z,96674.47
2023-05-22T00:13:03.806Z,96669.16
2023-05-22T00:15:35.614Z,96672.34
2023-05-22T00:18:07.349Z,96673.81
2023-05-22T00:20:39.654Z,96674.56
2023-05-22T00:23:13.051Z,96673.81
2023-05-22T00:25:46.169Z,96669.97
2023-05-22T00:28:17.862Z,96673.41
2023-05-22T00:30:50.528Z,96676.00
2023-05-22T00:33:22.220Z,96680.00
2023-05-22T00:35:53.809Z,96673.72
2023-05-22T00:38:33.944Z,96666.25
2023-05-22T00:41:06.282Z,96670.94
2023-05-22T00:43:39.674Z,96667.59
2023-05-22T00:46:11.393Z,96667.47
2023-05-22T00:48:43.001Z,96662.72
2023-05-22T00:51:15.085Z,96667.59
2023-05-22T00:53:47.740Z,96666.75
2023-05-22T00:56:20.490Z,96664.78
2023-05-22T00:58:52.799Z,96659.13
2023-05-22T01:01:24.705Z,96660.63
2023-05-22T01:03:56.682Z,96673.38
2023-05-22T01:06:28.807Z,96668.69
2023-05-22T01:09:00.518Z,96664.06
2023-05-22T01:11:42.585Z,96661.56
2023-05-22T01:14:57.754Z,96658.19
2023-05-22T01:17:39.826Z,96657.41
2023-05-22T01:20:27.497Z,96652.34
2023-05-22T01:23:33.770Z,96651.84
2023-05-22T01:26:27.107Z,96642.41
2023-05-22T01:29:41.939Z,96638.81
2023-05-22T01:32:23.241Z,96651.78
2023-05-22T01:35:01.357Z,96650.47
2023-05-22T01:37:33.392Z,96652.06
2023-05-22T01:40:07.358Z,96642.41
2023-05-22T01:42:40.197Z,96641.19
2023-05-22T01:45:14.406Z,96650.25
2023-05-22T01:47:46.144Z,96652.13
2023-05-22T01:50:20.314Z,96653.63
2023-05-22T01:53:25.774Z,96660.53
2023-05-22T01:56:06.590Z,96668.63
2023-05-22T01:58:56.038Z,96667.59
2023-05-22T02:01:33.224Z,96671.13
2023-05-22T02:04:06.272Z,96662.53
2023-05-22T02:06:41.367Z,96665.53
2023-05-22T02:09:17.349Z,96667.47
2023-05-22T02:11:49.472Z,96669.00
2023-05-22T02:14:25.279Z,96661.41
2023-05-22T02:16:57.367Z,96669.19
2023-05-22T02:19:37.140Z,96665.84
2023-05-22T02:22:08.886Z,96667.47
2023-05-22T02:24:45.902Z,96670.94
2023-05-22T02:27:17.542Z,96669.56
2023-05-22T02:29:49.181Z,96666.34
2023-05-22T02:32:20.901Z,96664.31
2023-05-22T02:34:54.639Z,96664.09
2023-05-22T02:37:26.725Z,96669.06
2023-05-22T02:39:58.887Z,96669.38
2023-05-22T02:42:30.890Z,96666.78
2023-05-22T02:45:03.023Z,96674.00
2023-05-22T02:47:35.094Z,96681.16
2023-05-22T02:50:07.329Z,96680.66
2023-05-22T02:52:39.689Z,96681.38
2023-05-22T02:55:11.817Z,96677.88
2023-05-22T02:57:43.491Z,96675.25
2023-05-22T03:00:15.474Z,96671.09
2023-05-22T03:02:47.260Z,96663.94
2023-05-22T03:05:20.526Z,96681.72
2023-05-22T03:07:52.206Z,96679.34
2023-05-22T03:10:24.326Z,96676.97
2023-05-22T03:12:56.118Z,96684.00
2023-05-22T03:15:27.852Z,96680.00
2023-05-22T03:18:03.634Z,96679.59
2023-05-22T03:20:36.251Z,96683.69
2023-05-22T03:23:07.900Z,96672.16
2023-05-22T03:25:39.807Z,96676.41
2023-05-22T03:28:12.266Z,96679.28
2023-05-22T03:30:45.891Z,96677.31
2023-05-22T03:33:24.638Z,96678.06
2023-05-22T03:35:56.569Z,96678.34
2023-05-22T03:38:28.279Z,96680.06
2023-05-22T03:40:59.990Z,96682.91
2023-05-22T03:43:31.638Z,96679.81
2023-05-22T03:46:03.536Z,96683.47
2023-05-22T03:48:35.192Z,96678.75
2023-05-22T03:51:07.116Z,96683.38
2023-05-22T03:53:38.896Z,96680.13
2023-05-22T03:56:10.920Z,96690.25
2023-05-22T03:58:42.609Z,96690.28
2023-05-22T04:01:14.330Z,96695.09
2023-05-22T04:03:46.243Z,96691.19
2023-05-22T04:06:19.094Z,96686.66
2023-05-22T04:08:51.192Z,96696.00
2023-05-22T04:11:22.948Z,96689.47
2023-05-22T04:13:56.625Z,96696.06
2023-05-22T04:16:29.316Z,96700.63
2023-05-22T04:19:01.687Z,96700.00
2023-05-22T04:21:33.808Z,96699.19
2023-05-22T04:24:06.008Z,96689.13
2023-05-22T04:26:38.072Z,96695.63
2023-05-22T04:29:13.610Z,96698.34
2023-05-22T04:31:45.348Z,96702.31
2023-05-22T04:34:17.462Z,96705.94
2023-05-22T04:36:49.111Z,96710.09
2023-05-22T04:39:20.713Z,96704.44
2023-05-22T04:41:52.317Z,96704.09
2023-05-22T04:44:24.023Z,96703.50
2023-05-22T04:46:56.790Z,96700.69
2023-05-22T04:49:28.753Z,96694.38
2023-05-22T04:52:00.376Z,96697.97
2023-05-22T04:54:32.361Z,96696.63
2023-05-22T04:57:04.525Z,96690.91
2023-05-22T04:59:36.945Z,96697.22
2023-05-22T05:02:08.622Z,96693.50
2023-05-22T05:04:41.325Z,96701.69
2023-05-22T05:07:12.987Z,96704.63
2023-05-22T05:09:44.689Z,96703.97
2023-05-22T05:12:16.449Z,96709.03
2023-05-22T05:14:48.046Z,96716.88
2023-05-22T05:17:20.400Z,96714.94
2023-05-22T05:19:52.236Z,96720.00
2023-05-22T05:22:24.758Z,96721.59
2023-05-22T05:24:56.771Z,96710.34
2023-05-22T05:27:28.803Z,96704.97
2023-05-22T05:30:01.318Z,96710.03
2023-05-22T05:32:47.998Z,96711.06
2023-05-22T05:35:46.282Z,96711.38
2023-05-22T05:38:19.509Z,96707.03
2023-05-22T05:40:52.600Z,96698.94
2023-05-22T05:43:25.666Z,96697.84
2023-05-22T05:46:00.805Z,96696.75
2023-05-22T05:48:33.684Z,96696.34
2023-05-22T05:51:05.973Z,96686.34
2023-05-22T05:53:42.910Z,96693.03
2023-05-22T05:56:16.075Z,96696.56
2023-05-22T05:58:48.091Z,96699.88
2023-05-22T06:01:38.635Z,96698.97
2023-05-22T06:04:15.227Z,96710.59
2023-05-22T06:06:49.928Z,96711.84
2023-05-22T06:09:40.124Z,96708.66
2023-05-22T06:12:16.611Z,96716.88
2023-05-22T06:14:50.435Z,96719.25
2023-05-22T06:17:22.746Z,96718.44
2023-05-22T06:19:54.505Z,96715.13
2023-05-22T06:22:26.411Z,96722.22
2023-05-22T06:24:58.743Z,96722.69
2023-05-22T06:27:32.490Z,96733.34
2023-05-22T06:30:05.721Z,96730.22
2023-05-22T06:32:42.565Z,96721.94
2023-05-22T06:35:15.608Z,96737.03
2023-05-22T06:37:47.219Z,96730.69
2023-05-22T06:40:19.660Z,96729.44
2023-05-22T06:42:54.659Z,96731.13
2023-05-22T06:45:26.284Z,96739.56
2023-05-22T06:48:27.319Z,96736.66
2023-05-22T06:51:25.535Z,96735.53
2023-05-22T06:54:03.540Z,96738.28
2023-05-22T06:56:36.900Z,96743.06
2023-05-22T06:59:13.523Z,96743.91
2023-05-22T07:01:50.798Z,96744.31
2023-05-22T07:04:30.994Z,96742.19
2023-05-22T07:07:11.439Z,96737.53
2023-05-22T07:09:43.889Z,96738.88
2023-05-22T07:12:17.154Z,96739.88
2023-05-22T07:14:50.010Z,96742.47
2023-05-22T07:17:21.901Z,96742.66
2023-05-22T07:19:54.629Z,96743.75
2023-05-22T07:22:29.612Z,96743.00
2023-05-22T07:25:02.438Z,96748.13
2023-05-22T07:27:37.905Z,96744.75
2023-05-22T07:30:10.030Z,96753.22
2023-05-22T07:32:43.501Z,96755.69
2023-05-22T07:35:16.141Z,96751.50
2023-05-22T07:37:47.803Z,96757.38
2023-05-22T07:40:20.553Z,96760.28
2023-05-22T07:42:52.448Z,96759.78
2023-05-22T07:45:25.320Z,96749.69
2023-05-22T07:47:57.679Z,96751.31
2023-05-22T07:50:30.298Z,96741.59
2023-05-22T07:53:02.053Z,96753.88
2023-05-22T07:55:37.488Z,96739.53
2023-05-22T07:58:09.451Z,96738.97
2023-05-22T08:00:42.962Z,96745.72
2023-05-22T08:03:14.917Z,96738.03
2023-05-22T08:05:47.233Z,96736.25
2023-05-22T08:08:18.987Z,96731.06
2023-05-22T08:11:03.049Z,96739.94
2023-05-22T08:13:35.956Z,96739.81
2023-05-22T08:16:07.872Z,96729.22
2023-05-22T08:18:39.516Z,96721.94
2023-05-22T08:21:11.114Z,96722.25
2023-05-22T08:23:42.834Z,96728.47
2023-05-22T08:26:15.070Z,96727.38
2023-05-22T08:28:46.924Z,96720.69
2023-05-22T08:31:18.813Z,96711.91
2023-05-22T08:33:50.711Z,96713.47
2023-05-22T08:36:22.652Z,96712.28
2023-05-22T08:38:54.522Z,96699.88
2023-05-22T08:41:27.258Z,96702.56
2023-05-22T08:43:59.295Z,96711.50
2023-05-22T08:46:32.463Z,96708.38
2023-05-22T08:49:05.202Z,96715.94
2023-05-22T08:51:41.769Z,96710.75
2023-05-22T08:54:18.603Z,96718.16
2023-05-22T08:56:56.889Z,96713.66
2023-05-22T08:59:30.539Z,96712.75
2023-05-22T09:02:06.673Z,96706.09
2023-05-22T09:04:41.215Z,96705.03
2023-05-22T09:07:12.829Z,96717.50
2023-05-22T09:09:44.491Z,96713.06
2023-05-22T09:12:16.763Z,96713.56
2023-05-22T09:14:48.497Z,96710.91
2023-05-22T09:17:20.189Z,96713.88
2023-05-22T09:19:51.812Z,96710.47
2023-05-22T09:22:24.488Z,96712.53
2023-05-22T09:24:56.412Z,96701.28
2023-05-22T09:27:28.044Z,96700.97
2023-05-22T09:29:59.817Z,96702.25
2023-05-22T09:32:31.720Z,96701.56
2023-05-22T09:35:04.754Z,96694.16
2023-05-22T09:37:37.214Z,96690.53
2023-05-22T09:40:12.000Z,96682.97
2023-05-22T09:42:44.431Z,96688.81
2023-05-22T09:45:19.930Z,96681.16
2023-05-22T09:47:51.948Z,96675.56
2023-05-22T09:50:23.735Z,96676.78
2023-05-22T09:52:57.378Z,96673.63
2023-05-22T09:55:29.947Z,96676.63
2023-05-22T09:58:04.285Z,96676.19
2023-05-22T10:00:37.443Z,96678.19
2023-05-22T10:03:10.941Z,96676.25
2023-05-22T10:05:50.728Z,96671.94
2023-05-22T10:08:28.581Z,96680.91
2023-05-22T10:11:00.812Z,96682.81
2023-05-22T10:13:34.999Z,96679.16
2023-05-22T10:16:07.005Z,96677.72
2023-05-22T10:18:40.845Z,96667.31
2023-05-22T10:21:13.428Z,96670.63
2023-05-22T10:23:45.651Z,96672.41
2023-05-22T10:26:18.465Z,96676.19
2023-05-22T10:29:02.550Z,96671.16
2023-05-22T10:32:27.947Z,96664.63
2023-05-22T10:35:33.336Z,96661.75
2023-05-22T10:38:14.007Z,96662.81
2023-05-22T10:40:47.424Z,96655.94
2023-05-22T10:43:22.365Z,96653.75
2023-05-22T10:46:03.499Z,96655.38
2023-05-22T10:48:45.110Z,96647.84
2023-05-22T10:51:22.045Z,96659.75
2023-05-22T10:54:02.952Z,96657.03
2023-05-22T10:56:36.047Z,96651.59
2023-05-22T10:59:08.044Z,96655.38
2023-05-22T11:01:40.163Z,96650.03
2023-05-22T11:04:29.634Z,96648.06
2023-05-22T11:07:04.665Z,96640.59
2023-05-22T11:09:44.183Z,96644.44
2023-05-22T11:12:26.638Z,96646.34
2023-05-22T11:15:09.534Z,96639.06
2023-05-22T11:17:43.949Z,96632.88
2023-05-22T11:20:23.397Z,96633.69
2023-05-22T11:23:00.901Z,96625.88
2023-05-22T11:25:37.233Z,96623.06
2023-05-22T11:28:08.838Z,96618.78
2023-05-22T11:30:41.893Z,96618.97
2023-05-22T11:33:14.780Z,96616.69
2023-05-22T11:35:49.210Z,96614.06
2023-05-22T11:38:21.887Z,96620.81
2023-05-22T11:40:53.643Z,96617.13
2023-05-22T11:43:29.365Z,96614.88
2023-05-22T11:46:12.143Z,96607.06
2023-05-22T11:48:44.057Z,96608.25
2023-05-22T11:51:20.065Z,96604.00
2023-05-22T11:53:52.504Z,96611.22
2023-05-22T11:56:24.242Z,96604.75
2023-05-22T11:58:56.570Z,96593.03
2023-05-22T12:01:28.236Z,96600.47
2023-05-22T12:03:59.997Z,96607.38
2023-05-22T12:06:32.006Z,96602.16
2023-05-22T12:09:04.138Z,96600.03
2023-05-22T12:11:36.573Z,96598.47
2023-05-22T12:14:11.758Z,96595.75
2023-05-22T12:16:43.775Z,96603.06
2023-05-22T12:19:15.494Z,96601.91
2023-05-22T12:21:50.195Z,96594.13
2023-05-22T12:24:21.859Z,96594.56
2023-05-22T12:26:53.873Z,96586.81
2023-05-22T12:29:25.655Z,96583.69
2023-05-22T12:32:02.265Z,96581.34
2023-05-22T12:34:35.524Z,96576.66
2023-05-22T12:37:20.750Z,96566.81
2023-05-22T12:40:00.010Z,96555.94
2023-05-22T12:42:31.904Z,96564.47
2023-05-22T12:45:03.788Z,96570.78
2023-05-22T12:47:35.503Z,96560.94
2023-05-22T12:50:08.168Z,96565.69
2023-05-22T12:52:39.861Z,96563.44
2023-05-22T12:55:11.888Z,96558.34
2023-05-22T12:57:43.618Z,96558.44
2023-05-22T13:00:15.952Z,96548.19
2023-05-22T13:02:47.977Z,96547.13
2023-05-22T13:05:20.198Z,96541.63
2023-05-22T13:07:52.085Z,96542.91
2023-05-22T13:10:23.874Z,96539.88
2023-05-22T13:12:55.475Z,96542.09
2023-05-22T13:15:27.138Z,96546.19
2023-05-22T13:17:59.557Z,96550.09
2023-05-22T13:20:31.371Z,96547.00
2023-05-22T13:23:03.143Z,96544.97
2023-05-22T13:25:34.894Z,96543.06
2023-05-22T13:28:06.630Z,96539.53
2023-05-22T13:30:38.520Z,96536.34
2023-05-22T13:33:10.410Z,96528.22
2023-05-22T13:35:42.259Z,96522.72
2023-05-22T13:38:14.042Z,96520.38
2023-05-22T13:40:48.140Z,96513.38
2023-05-22T13:43:20.189Z,96518.44
2023-05-22T13:45:52.044Z,96516.09
2023-05-22T13:48:23.802Z,96514.19
2023-05-22T13:50:55.628Z,96508.72
2023-05-22T13:53:27.265Z,96503.25
2023-05-22T13:55:59.008Z,96497.38
2023-05-22T13:58:30.596Z,96498.88
2023-05-22T14:01:02.243Z,96508.94
2023-05-22T14:03:33.989Z,96501.66
2023-05-22T14:06:05.872Z,96501.34
2023-05-22T14:08:37.504Z,96500.81
2023-05-22T14:11:09.150Z,96508.13
2023-05-22T14:13:40.799Z,96507.75
2023-05-22T14:16:12.706Z,96509.06
2023-05-22T14:18:44.363Z,96505.56
2023-05-22T14:21:16.189Z,96513.78
2023-05-22T14:23:47.870Z,96517.41
2023-05-22T14:26:19.576Z,96510.94
2023-05-22T14:28:51.667Z,96510.59
2023-05-22T14:31:23.319Z,96508.28
2023-05-22T14:33:55.005Z,96502.88
2023-05-22T14:36:26.742Z,96503.91
2023-05-22T14:38:58.421Z,96511.81
2023-05-22T14:41:30.008Z,96513.72
2023-05-22T14:44:01.628Z,96512.41
2023-05-22T14:46:33.522Z,96509.72
2023-05-22T14:49:05.293Z,96514.38
2023-05-22T14:51:37.295Z,96512.09
2023-05-22T14:54:09.004Z,96519.34
2023-05-22T14:56:41.347Z,96503.22
2023-05-22T14:59:13.164Z,96508.66
2023-05-22T15:01:44.969Z,96501.88
2023-05-22T15:04:16.860Z,96505.13
2023-05-22T15:06:48.668Z,96511.78
2023-05-22T15:09:20.534Z,96507.94
2023-05-22T15:11:52.229Z,96507.06
2023-05-22T15:14:24.050Z,96515.91
2023-05-22T15:16:55.847Z,96516.94
2023-05-22T15:19:27.850Z,96514.81
2023-05-22T15:22:05.941Z,96517.22
2023-05-22T15:24:40.757Z,96521.22
2023-05-22T15:27:12.860Z,96519.63
2023-05-22T15:29:44.509Z,96522.00
2023-05-22T15:32:16.302Z,96525.09
2023-05-22T15:34:48.183Z,96519.25
2023-05-22T15:37:19.891Z,96524.31
2023-05-22T15:39:51.565Z,96534.84
2023-05-22T15:42:23.488Z,96532.38
2023-05-22T15:44:55.409Z,96537.47
2023-05-22T15:47:27.323Z,96535.00
2023-05-22T15:49:59.091Z,96538.03
2023-05-22T15:52:30.832Z,96532.19
2023-05-22T15:55:02.686Z,96520.97
2023-05-22T15:57:34.351Z,96519.94
2023-05-22T16:00:06.679Z,96523.00
2023-05-22T16:02:38.389Z,96517.53
2023-05-22T16:05:10.331Z,96531.50
2023-05-22T16:07:42.251Z,96525.66
2023-05-22T16:10:13.921Z,96520.78
2023-05-22T16:12:45.603Z,96523.16
2023-05-22T16:15:17.300Z,96513.78
2023-05-22T16:17:49.024Z,96506.75
2023-05-22T16:20:22.484Z,96503.16
2023-05-22T16:22:54.457Z,96511.81
2023-05-22T16:25:26.761Z,96503.22
2023-05-22T16:27:58.557Z,96509.47
2023-05-22T16:30:30.178Z,96514.13
2023-05-22T16:33:02.364Z,96509.81
2023-05-22T16:35:34.711Z,96504.31
2023-05-22T16:38:06.341Z,96511.31
2023-05-22T16:40:38.024Z,96512.75
2023-05-22T16:43:09.607Z,96502.09
2023-05-22T16:45:41.481Z,96511.63
2023-05-22T16:48:13.450Z,96504.41
2023-05-22T16:50:45.200Z,96498.94
2023-05-22T16:53:16.897Z,96495.84
2023-05-22T16:55:48.795Z,96497.13
2023-05-22T16:58:20.662Z,96500.81
2023-05-22T17:00:53.237Z,96498.59
2023-05-22T17:03:25.692Z,96511.22
2023-05-22T17:05:57.818Z,96514.63
2023-05-22T17:08:30.444Z,96521.50
2023-05-22T17:11:02.266Z,96515.91
2023-05-22T17:13:34.065Z,96525.47
2023-05-22T17:16:05.910Z,96536.47
2023-05-22T17:18:37.738Z,96528.28
2023-05-22T17:21:09.734Z,96538.38
2023-05-22T17:23:41.761Z,96538.19
2023-05-22T17:26:13.514Z,96545.75
2023-05-22T17:28:45.221Z,96555.75
2023-05-22T17:31:16.884Z,96555.97
2023-05-22T17:33:48.513Z,96563.97
2023-05-22T17:36:20.335Z,96570.09
2023-05-22T17:38:52.100Z,96582.25
2023-05-22T17:41:24.019Z,96580.25
2023-05-22T17:43:56.045Z,96590.47
2023-05-22T17:46:27.969Z,96591.34
2023-05-22T17:48:59.704Z,96597.78
2023-05-22T17:51:31.398Z,96595.47
2023-05-22T17:54:04.613Z,96589.94
2023-05-22T17:56:36.908Z,96586.66
2023-05-22T17:59:08.638Z,96590.25
2023-05-22T18:01:40.311Z,96585.75
2023-05-22T18:04:11.970Z,96582.75
2023-05-22T18:06:44.489Z,96584.34
2023-05-22T18:09:16.245Z,96590.47
2023-05-22T18:11:47.892Z,96604.19
2023-05-22T18:14:20.270Z,96594.59
2023-05-22T18:16:51.915Z,96599.81
2023-05-22T18:19:23.813Z,96595.53
2023-05-22T18:21:55.487Z,96605.81
2023-05-22T18:24:28.568Z,96593.75
2023-05-22T18:27:00.257Z,96592.19
2023-05-22T18:29:31.960Z,96592.19
2023-05-22T18:32:03.825Z,96605.47
2023-05-22T18:34:37.229Z,96613.78
2023-05-22T18:37:09.208Z,96614.59
2023-05-22T18:39:41.236Z,96621.56
2023-05-22T18:42:13.511Z,96623.47
2023-05-22T18:44:46.878Z,96622.50
2023-05-22T18:47:20.419Z,96630.44
2023-05-22T18:49:52.049Z,96630.81
2023-05-22T18:52:23.594Z,96627.81
2023-05-22T18:54:55.186Z,96625.84
2023-05-22T18:57:27.016Z,96625.59
2023-05-22T18:59:58.805Z,96632.72
2023-05-22T19:02:30.550Z,96619.03
2023-05-22T19:05:03.291Z,96616.66
2023-05-22T19:07:35.344Z,96615.44
2023-05-22T19:10:08.337Z,96613.28
2023-05-22T19:12:40.299Z,96616.28
2023-05-22T19:15:12.061Z,96608.13
2023-05-22T19:17:43.961Z,96621.06
2023-05-22T19:20:16.053Z,96611.56
2023-05-22T19:22:47.880Z,96616.63
2023-05-22T19:25:19.939Z,96627.63
2023-05-22T19:27:52.248Z,96624.63
2023-05-22T19:30:24.247Z,96619.09
2023-05-22T19:32:56.384Z,96621.53
2023-05-22T19:35:28.159Z,96619.34
2023-05-22T19:38:00.255Z,96622.19
2023-05-22T19:40:32.571Z,96625.28
2023-05-22T19:43:04.422Z,96621.63
2023-05-22T19:45:36.193Z,96622.94
2023-05-22T19:48:07.862Z,96624.19
2023-05-22T19:50:39.572Z,96619.13
2023-05-22T19:53:11.349Z,96617.22
2023-05-22T19:55:43.102Z,96620.50
2023-05-22T19:58:14.692Z,96619.34
2023-05-22T20:00:46.269Z,96626.06
2023-05-22T20:03:18.043Z,96621.69
2023-05-22T20:05:52.218Z,96628.69
2023-05-22T20:08:23.794Z,96627.78
2023-05-22T20:10:55.404Z,96625.53
2023-05-22T20:13:27.115Z,96635.25
2023-05-22T20:15:58.819Z,96641.84
2023-05-22T20:18:30.504Z,96644.25
2023-05-22T20:21:02.159Z,96657.13
2023-05-22T20:23:33.855Z,96664.28
2023-05-22T20:26:05.708Z,96664.97
2023-05-22T20:28:37.415Z,96678.78
2023-05-22T20:31:09.052Z,96687.28
2023-05-22T20:33:41.177Z,96698.91
2023-05-22T20:36:12.984Z,96693.59
2023-05-22T20:38:44.576Z,96699.50
2023-05-22T20:41:16.205Z,96708.59
2023-05-22T20:43:47.851Z,96692.09
2023-05-22T20:46:19.600Z,96693.03
2023-05-22T20:48:51.578Z,96685.78
2023-05-22T20:51:23.292Z,96695.28
2023-05-22T20:53:54.871Z,96697.75
2023-05-22T20:56:26.980Z,96695.06
2023-05-22T20:58:58.719Z,96711.31
2023-05-22T21:01:30.551Z,96714.31
2023-05-22T21:04:02.744Z,96722.19
2023-05-22T21:06:34.448Z,96723.84
2023-05-22T21:09:06.282Z,96720.22
2023-05-22T21:11:38.025Z,96723.34
2023-05-22T21:14:09.789Z,96710.19
2023-05-22T21:16:41.748Z,96708.44
2023-05-22T21:19:13.693Z,96714.75
2023-05-22T21:21:45.401Z,96734.03
2023-05-22T21:24:17.494Z,96735.19
2023-05-22T21:26:49.462Z,96731.84
2023-05-22T21:29:22.436Z,96731.66
2023-05-22T21:31:54.189Z,96727.69
2023-05-22T21:34:26.265Z,96727.56
2023-05-22T21:36:58.012Z,96734.94
2023-05-22T21:39:29.965Z,96728.53
2023-05-22T21:42:02.489Z,96739.66
2023-05-22T21:44:34.344Z,96741.66
2023-05-22T21:47:06.124Z,96735.38
2023-05-22T21:49:39.552Z,96733.44
2023-05-22T21:52:11.960Z,96725.00
2023-05-22T21:54:43.593Z,96722.41
2023-05-22T21:57:15.178Z,96734.22
2023-05-22T21:59:47.010Z,96739.19
2023-05-22T22:02:18.703Z,96730.19
2023-05-22T22:04:50.251Z,96742.69
2023-05-22T22:07:21.929Z,96746.38
2023-05-22T22:09:53.527Z,96737.66
2023-05-22T22:12:25.305Z,96739.84
2023-05-22T22:14:57.227Z,96743.31
2023-05-22T22:17:28.813Z,96747.16
2023-05-22T22:20:00.667Z,96750.75
2023-05-22T22:22:32.192Z,96736.13
2023-05-22T22:25:04.104Z,96739.59
2023-05-22T22:27:35.904Z,96735.97
2023-05-22T22:30:08.445Z,96734.44
2023-05-22T22:32:40.012Z,96733.03
2023-05-22T22:35:11.678Z,96729.47
2023-05-22T22:37:43.646Z,96737.44
2023-05-22T22:40:15.313Z,96734.19
2023-05-22T22:42:46.904Z,96735.09
2023-05-22T22:45:18.616Z,96731.16
2023-05-22T22:47:50.414Z,96734.09
2023-05-22T22:50:22.051Z,96742.28
2023-05-22T22:52:53.699Z,96740.84
2023-05-22T22:55:25.488Z,96745.25
2023-05-22T22:57:57.358Z,96738.78
2023-05-22T23:00:29.020Z,96731.53
2023-05-22T23:03:00.756Z,96731.88
2023-05-22T23:05:32.507Z,96731.84
2023-05-22T23:08:04.266Z,96744.25
2023-05-22T23:10:35.907Z,96734.66
2023-05-22T23:13:07.537Z,96738.19
2023-05-22T23:15:39.415Z,96737.69
2023-05-22T23:18:11.408Z,96741.69
2023-05-22T23:20:43.248Z,96734.34
2023-05-22T23:23:15.314Z,96743.19
2023-05-22T23:25:47.333Z,96741.50
2023-05-22T23:28:19.462Z,96737.28
2023-05-22T23:30:51.828Z,96744.72
2023-05-22T23:33:23.922Z,96735.38
2023-05-22T23:35:55.623Z,96740.38
2023-05-22T23:38:27.916Z,96749.28
2023-05-22T23:40:59.752Z,96750.78
2023-05-22T23:43:32.354Z,96753.94
2023-05-22T23:46:04.433Z,96746.03
2023-05-22T23:48:36.130Z,96745.34
2023-05-22T23:51:09.040Z,96747.78
2023-05-22T23:53:41.878Z,96749.31
2023-05-22T23:56:13.649Z,96744.47
2023-05-22T23:58:45.433Z,96747.38
